Washingtonville, Pennsylvania
Current Conditions -  °F | °C
As of 10:54 AM on Saturday 22 Nov 2014 (Local Time) from KIPT Reporting Station
Few Clouds Few Clouds  
Wind Chill: 30°   Ceiling: Unl
Heat Index: 30°   Visibility: 10mi
Dew Point: 14°   Wind: 3mph
Humidity: 51%   Direction: NA
Pressure: 30.37"   Gusts: NA
Location:  41.05°N, 76.67°W
Report Text: KIPT 221554Z VRB03KT 10SM FEW250 M01/M10 A3037 RMK AO2 SLP293 T10111100
Loading
Personal Weather Stations






























Interactive Weather Map New forecast layout! Learn more

10-Day Weather Forecast

Advertisements
Track Severe Weather on mobile